sensor_id;sensor_type;location;lat;lon;timestamp;pressure;altitude;pressure_sealevel;temperature;humidity
42945;BME280;28584;42.636;23.294;2023-03-03T00:01:14;91607.06;;;2.11;100.00
42945;BME280;28584;42.636;23.294;2023-03-03T00:03:40;91866.09;;;2.15;100.00
42945;BME280;28584;42.636;23.294;2023-03-03T00:06:09;91849.13;;;2.18;100.00
42945;BME280;28584;42.636;23.294;2023-03-03T00:08:35;91376.03;;;2.09;100.00
42945;BME280;28584;42.636;23.294;2023-03-03T00:11:00;90701.53;;;2.06;100.00
42945;BME280;28584;42.636;23.294;2023-03-03T00:13:28;89914.00;;;2.01;100.00
42945;BME280;28584;42.636;23.294;2023-03-03T00:16:09;89102.06;;;1.98;100.00
42945;BME280;28584;42.636;23.294;2023-03-03T00:18:40;88038.91;;;1.99;100.00
42945;BME280;28584;42.636;23.294;2023-03-03T00:21:18;87232.59;;;1.99;100.00
42945;BME280;28584;42.636;23.294;2023-03-03T00:23:46;86374.31;;;2.02;100.00
42945;BME280;28584;42.636;23.294;2023-03-03T00:26:31;85785.25;;;2.01;100.00
42945;BME280;28584;42.636;23.294;2023-03-03T00:28:59;85101.75;;;2.04;100.00
42945;BME280;28584;42.636;23.294;2023-03-03T00:31:32;84688.66;;;2.01;100.00
42945;BME280;28584;42.636;23.294;2023-03-03T00:34:18;84413.44;;;2.02;100.00
42945;BME280;28584;42.636;23.294;2023-03-03T00:36:48;84086.53;;;2.02;100.00
42945;BME280;28584;42.636;23.294;2023-03-03T00:39:29;83643.03;;;2.08;100.00
42945;BME280;28584;42.636;23.294;2023-03-03T00:41:56;83577.84;;;2.05;100.00
42945;BME280;28584;42.636;23.294;2023-03-03T00:46:55;83124.97;;;2.12;100.00
42945;BME280;28584;42.636;23.294;2023-03-03T00:49:24;82917.59;;;2.13;100.00
42945;BME280;28584;42.636;23.294;2023-03-03T00:51:52;82904.09;;;2.09;100.00
42945;BME280;28584;42.636;23.294;2023-03-03T00:54:17;82797.50;;;2.16;100.00
42945;BME280;28584;42.636;23.294;2023-03-03T00:56:43;82786.69;;;2.12;100.00
42945;BME280;28584;42.636;23.294;2023-03-03T00:59:08;82888.03;;;2.11;100.00
42945;BME280;28584;42.636;23.294;2023-03-03T01:01:34;82832.47;;;2.18;100.00
42945;BME280;28584;42.636;23.294;2023-03-03T01:03:59;82797.69;;;2.24;100.00
42945;BME280;28584;42.636;23.294;2023-03-03T01:06:24;83013.06;;;2.20;100.00
42945;BME280;28584;42.636;23.294;2023-03-03T01:08:50;83274.16;;;2.19;100.00
42945;BME280;28584;42.636;23.294;2023-03-03T01:11:19;83454.19;;;2.23;100.00
42945;BME280;28584;42.636;23.294;2023-03-03T01:13:47;83682.22;;;2.15;100.00
42945;BME280;28584;42.636;23.294;2023-03-03T01:16:14;83787.78;;;2.19;100.00
42945;BME280;28584;42.636;23.294;2023-03-03T01:18:40;83856.16;;;2.16;100.00
42945;BME280;28584;42.636;23.294;2023-03-03T01:21:07;83933.28;;;2.14;100.00
42945;BME280;28584;42.636;23.294;2023-03-03T01:23:33;83813.31;;;2.20;100.00
42945;BME280;28584;42.636;23.294;2023-03-03T01:25:58;83647.75;;;2.29;100.00
42945;BME280;28584;42.636;23.294;2023-03-03T01:28:23;83694.75;;;2.28;100.00
42945;BME280;28584;42.636;23.294;2023-03-03T01:30:49;83824.50;;;2.32;100.00
42945;BME280;28584;42.636;23.294;2023-03-03T01:33:15;84092.44;;;2.32;100.00
42945;BME280;28584;42.636;23.294;2023-03-03T01:35:44;84442.78;;;2.27;100.00
42945;BME280;28584;42.636;23.294;2023-03-03T01:38:10;84499.06;;;2.38;100.00
42945;BME280;28584;42.636;23.294;2023-03-03T01:40:35;84723.13;;;2.45;100.00
42945;BME280;28584;42.636;23.294;2023-03-03T01:43:01;85055.22;;;2.48;100.00
42945;BME280;28584;42.636;23.294;2023-03-03T01:45:28;85374.75;;;2.53;100.00
42945;BME280;28584;42.636;23.294;2023-03-03T01:50:39;87212.63;;;2.45;100.00
42945;BME280;28584;42.636;23.294;2023-03-03T01:53:16;88036.72;;;2.42;100.00
42945;BME280;28584;42.636;23.294;2023-03-03T01:55:45;88626.84;;;2.39;100.00
42945;BME280;28584;42.636;23.294;2023-03-03T01:58:25;89075.41;;;2.33;100.00
42945;BME280;28584;42.636;23.294;2023-03-03T02:00:57;89271.59;;;2.31;100.00
42945;BME280;28584;42.636;23.294;2023-03-03T02:03:25;89417.06;;;2.22;100.00
42945;BME280;28584;42.636;23.294;2023-03-03T02:05:54;89329.50;;;2.21;100.00
42945;BME280;28584;42.636;23.294;2023-03-03T02:08:25;89085.69;;;2.23;100.00
42945;BME280;28584;42.636;23.294;2023-03-03T02:10:53;88861.72;;;2.23;100.00
42945;BME280;28584;42.636;23.294;2023-03-03T02:13:20;88727.22;;;2.23;100.00
42945;BME280;28584;42.636;23.294;2023-03-03T02:15:45;88325.47;;;2.26;100.00
42945;BME280;28584;42.636;23.294;2023-03-03T02:18:15;88303.97;;;2.26;100.00
42945;BME280;28584;42.636;23.294;2023-03-03T02:23:48;88158.81;;;2.20;100.00
42945;BME280;28584;42.636;23.294;2023-03-03T02:26:18;87944.03;;;2.17;100.00
42945;BME280;28584;42.636;23.294;2023-03-03T02:28:47;87856.34;;;2.14;100.00
42945;BME280;28584;42.636;23.294;2023-03-03T02:31:16;87318.31;;;2.17;100.00
42945;BME280;28584;42.636;23.294;2023-03-03T02:33:44;86785.69;;;2.21;100.00
42945;BME280;28584;42.636;23.294;2023-03-03T02:36:12;86439.91;;;2.16;100.00
42945;BME280;28584;42.636;23.294;2023-03-03T02:41:42;85497.34;;;2.05;100.00
42945;BME280;28584;42.636;23.294;2023-03-03T02:44:15;84652.88;;;2.10;100.00
42945;BME280;28584;42.636;23.294;2023-03-03T02:46:45;84096.84;;;2.08;100.00
42945;BME280;28584;42.636;23.294;2023-03-03T02:49:14;83786.53;;;2.03;100.00
42945;BME280;28584;42.636;23.294;2023-03-03T02:51:40;83452.19;;;2.00;100.00
42945;BME280;28584;42.636;23.294;2023-03-03T02:54:07;83022.59;;;1.96;100.00
42945;BME280;28584;42.636;23.294;2023-03-03T02:56:33;82535.50;;;1.99;100.00
42945;BME280;28584;42.636;23.294;2023-03-03T02:58:58;82182.59;;;1.98;100.00
42945;BME280;28584;42.636;23.294;2023-03-03T03:01:24;82030.31;;;1.96;100.00
42945;BME280;28584;42.636;23.294;2023-03-03T03:03:49;81731.81;;;1.98;100.00
42945;BME280;28584;42.636;23.294;2023-03-03T03:06:15;81520.53;;;1.90;100.00
42945;BME280;28584;42.636;23.294;2023-03-03T03:08:40;81397.81;;;1.87;100.00
42945;BME280;28584;42.636;23.294;2023-03-03T03:11:06;81205.38;;;1.85;100.00
42945;BME280;28584;42.636;23.294;2023-03-03T03:13:32;81086.69;;;1.85;100.00
42945;BME280;28584;42.636;23.294;2023-03-03T03:15:58;80919.09;;;1.82;100.00
42945;BME280;28584;42.636;23.294;2023-03-03T03:18:23;80853.47;;;1.77;100.00
42945;BME280;28584;42.636;23.294;2023-03-03T03:20:49;80777.06;;;1.74;100.00
42945;BME280;28584;42.636;23.294;2023-03-03T03:23:15;80679.84;;;1.77;100.00
42945;BME280;28584;42.636;23.294;2023-03-03T03:25:40;80669.81;;;1.74;100.00
42945;BME280;28584;42.636;23.294;2023-03-03T03:28:13;80635.66;;;1.72;100.00
42945;BME280;28584;42.636;23.294;2023-03-03T03:30:39;80629.13;;;1.61;100.00
42945;BME280;28584;42.636;23.294;2023-03-03T03:33:06;80704.19;;;1.59;100.00
42945;BME280;28584;42.636;23.294;2023-03-03T03:35:33;80733.03;;;1.57;100.00
42945;BME280;28584;42.636;23.294;2023-03-03T03:37:59;80873.84;;;1.50;100.00
42945;BME280;28584;42.636;23.294;2023-03-03T03:40:24;80977.06;;;1.47;100.00
42945;BME280;28584;42.636;23.294;2023-03-03T03:42:51;81127.84;;;1.41;100.00
42945;BME280;28584;42.636;23.294;2023-03-03T03:45:17;81318.84;;;1.36;100.00
42945;BME280;28584;42.636;23.294;2023-03-03T03:47:42;81566.75;;;1.37;100.00
42945;BME280;28584;42.636;23.294;2023-03-03T03:50:08;81740.94;;;1.29;100.00
42945;BME280;28584;42.636;23.294;2023-03-03T03:52:34;81974.06;;;1.25;100.00
42945;BME280;28584;42.636;23.294;2023-03-03T03:55:00;82209.91;;;1.23;100.00
42945;BME280;28584;42.636;23.294;2023-03-03T03:57:25;82392.16;;;1.23;100.00
42945;BME280;28584;42.636;23.294;2023-03-03T03:59:51;82603.81;;;1.19;100.00
42945;BME280;28584;42.636;23.294;2023-03-03T04:02:16;83031.97;;;1.16;100.00
42945;BME280;28584;42.636;23.294;2023-03-03T04:04:42;83377.78;;;1.16;100.00
42945;BME280;28584;42.636;23.294;2023-03-03T04:07:07;83839.00;;;1.18;100.00
42945;BME280;28584;42.636;23.294;2023-03-03T04:09:33;84367.03;;;1.14;100.00
42945;BME280;28584;42.636;23.294;2023-03-03T04:11:59;84922.13;;;1.14;100.00
42945;BME280;28584;42.636;23.294;2023-03-03T04:14:24;85388.69;;;1.12;100.00
42945;BME280;28584;42.636;23.294;2023-03-03T04:16:49;86084.88;;;1.13;100.00
42945;BME280;28584;42.636;23.294;2023-03-03T04:19:15;86606.41;;;1.18;100.00
42945;BME280;28584;42.636;23.294;2023-03-03T04:21:40;87409.69;;;1.13;100.00
42945;BME280;28584;42.636;23.294;2023-03-03T04:24:06;88127.97;;;1.16;100.00
42945;BME280;28584;42.636;23.294;2023-03-03T04:26:32;89156.56;;;1.18;100.00
42945;BME280;28584;42.636;23.294;2023-03-03T04:28:57;89862.88;;;1.18;100.00
42945;BME280;28584;42.636;23.294;2023-03-03T04:31:24;90669.06;;;1.20;100.00
42945;BME280;28584;42.636;23.294;2023-03-03T04:33:50;91551.22;;;1.17;100.00
42945;BME280;28584;42.636;23.294;2023-03-03T04:36:16;92274.47;;;1.19;100.00
42945;BME280;28584;42.636;23.294;2023-03-03T04:38:41;92941.50;;;1.17;100.00
42945;BME280;28584;42.636;23.294;2023-03-03T04:41:07;93517.63;;;1.18;100.00
42945;BME280;28584;42.636;23.294;2023-03-03T04:43:32;94231.75;;;1.19;100.00
42945;BME280;28584;42.636;23.294;2023-03-03T04:45:58;94938.44;;;1.22;100.00
42945;BME280;28584;42.636;23.294;2023-03-03T04:48:23;95453.19;;;1.26;100.00
42945;BME280;28584;42.636;23.294;2023-03-03T04:50:48;95960.97;;;1.25;100.00
42945;BME280;28584;42.636;23.294;2023-03-03T04:53:14;96229.78;;;1.27;100.00
42945;BME280;28584;42.636;23.294;2023-03-03T04:55:39;97025.66;;;1.26;100.00
42945;BME280;28584;42.636;23.294;2023-03-03T04:58:05;97204.13;;;1.27;100.00
42945;BME280;28584;42.636;23.294;2023-03-03T05:00:31;97486.00;;;1.21;100.00
42945;BME280;28584;42.636;23.294;2023-03-03T05:02:57;97915.69;;;1.22;100.00
42945;BME280;28584;42.636;23.294;2023-03-03T05:05:22;97956.34;;;1.26;100.00
42945;BME280;28584;42.636;23.294;2023-03-03T05:07:48;98394.19;;;1.27;100.00
42945;BME280;28584;42.636;23.294;2023-03-03T05:10:13;98195.44;;;1.24;100.00
42945;BME280;28584;42.636;23.294;2023-03-03T05:12:39;98594.59;;;1.31;100.00
42945;BME280;28584;42.636;23.294;2023-03-03T05:15:05;98657.41;;;1.36;100.00
42945;BME280;28584;42.636;23.294;2023-03-03T05:17:30;98786.22;;;1.39;100.00
42945;BME280;28584;42.636;23.294;2023-03-03T05:19:56;98939.69;;;1.51;100.00
42945;BME280;28584;42.636;23.294;2023-03-03T05:22:22;99106.25;;;1.54;100.00
42945;BME280;28584;42.636;23.294;2023-03-03T05:24:48;99033.59;;;1.59;100.00
42945;BME280;28584;42.636;23.294;2023-03-03T05:27:17;99246.28;;;1.60;100.00
42945;BME280;28584;42.636;23.294;2023-03-03T05:29:42;99212.16;;;1.66;100.00
42945;BME280;28584;42.636;23.294;2023-03-03T05:32:08;99111.38;;;1.67;100.00
42945;BME280;28584;42.636;23.294;2023-03-03T05:34:33;98905.56;;;1.73;100.00
42945;BME280;28584;42.636;23.294;2023-03-03T05:36:59;98628.81;;;1.78;100.00
42945;BME280;28584;42.636;23.294;2023-03-03T05:39:24;98363.94;;;1.88;100.00
42945;BME280;28584;42.636;23.294;2023-03-03T05:41:49;97924.31;;;1.94;100.00
42945;BME280;28584;42.636;23.294;2023-03-03T05:44:15;97523.22;;;1.96;100.00
42945;BME280;28584;42.636;23.294;2023-03-03T05:46:40;97000.47;;;1.91;100.00
42945;BME280;28584;42.636;23.294;2023-03-03T05:49:07;96829.47;;;1.84;100.00
42945;BME280;28584;42.636;23.294;2023-03-03T05:51:32;96014.03;;;1.93;100.00
42945;BME280;28584;42.636;23.294;2023-03-03T05:53:57;95582.97;;;2.01;100.00
42945;BME280;28584;42.636;23.294;2023-03-03T05:56:23;94777.53;;;2.17;100.00
42945;BME280;28584;42.636;23.294;2023-03-03T05:58:48;94049.53;;;2.27;100.00
42945;BME280;28584;42.636;23.294;2023-03-03T06:01:13;93338.38;;;2.27;100.00
42945;BME280;28584;42.636;23.294;2023-03-03T06:03:39;92229.59;;;2.31;100.00
42945;BME280;28584;42.636;23.294;2023-03-03T06:06:04;91538.81;;;2.30;100.00
42945;BME280;28584;42.636;23.294;2023-03-03T06:08:30;90498.50;;;2.25;100.00
42945;BME280;28584;42.636;23.294;2023-03-03T06:10:57;89657.09;;;2.37;100.00
42945;BME280;28584;42.636;23.294;2023-03-03T06:13:22;88751.97;;;2.16;100.00
42945;BME280;28584;42.636;23.294;2023-03-03T06:15:47;88678.97;;;2.36;100.00
42945;BME280;28584;42.636;23.294;2023-03-03T06:18:13;88277.88;;;2.39;100.00
42945;BME280;28584;42.636;23.294;2023-03-03T06:20:38;88137.03;;;2.24;100.00
42945;BME280;28584;42.636;23.294;2023-03-03T06:23:04;87908.97;;;2.22;100.00
42945;BME280;28584;42.636;23.294;2023-03-03T06:25:30;87792.59;;;2.35;100.00
42945;BME280;28584;42.636;23.294;2023-03-03T06:27:56;87603.84;;;2.44;100.00
42945;BME280;28584;42.636;23.294;2023-03-03T06:30:22;87339.19;;;2.39;100.00
42945;BME280;28584;42.636;23.294;2023-03-03T06:32:47;87254.03;;;2.42;100.00
42945;BME280;28584;42.636;23.294;2023-03-03T06:35:13;87120.28;;;2.42;100.00
42945;BME280;28584;42.636;23.294;2023-03-03T06:37:38;87034.78;;;2.41;100.00
42945;BME280;28584;42.636;23.294;2023-03-03T06:40:04;86863.69;;;2.53;100.00
42945;BME280;28584;42.636;23.294;2023-03-03T06:42:30;86854.00;;;2.57;100.00
42945;BME280;28584;42.636;23.294;2023-03-03T06:44:55;86770.72;;;2.67;100.00
42945;BME280;28584;42.636;23.294;2023-03-03T06:47:21;86649.22;;;2.78;100.00
42945;BME280;28584;42.636;23.294;2023-03-03T06:49:47;86603.66;;;2.80;100.00
42945;BME280;28584;42.636;23.294;2023-03-03T06:52:22;86672.25;;;2.88;100.00
42945;BME280;28584;42.636;23.294;2023-03-03T06:54:48;86827.72;;;2.97;100.00
42945;BME280;28584;42.636;23.294;2023-03-03T06:57:25;87035.34;;;3.02;100.00
42945;BME280;28584;42.636;23.294;2023-03-03T06:59:52;87412.56;;;3.06;100.00
42945;BME280;28584;42.636;23.294;2023-03-03T07:02:20;87905.47;;;3.08;100.00
42945;BME280;28584;42.636;23.294;2023-03-03T07:04:45;88472.50;;;3.03;100.00
42945;BME280;28584;42.636;23.294;2023-03-03T07:07:24;88948.13;;;3.17;100.00
42945;BME280;28584;42.636;23.294;2023-03-03T07:09:54;89782.28;;;3.04;100.00
42945;BME280;28584;42.636;23.294;2023-03-03T07:12:22;90283.31;;;2.98;100.00
42945;BME280;28584;42.636;23.294;2023-03-03T07:14:58;90386.91;;;2.97;100.00
42945;BME280;28584;42.636;23.294;2023-03-03T07:17:26;90393.13;;;3.03;100.00
42945;BME280;28584;42.636;23.294;2023-03-03T07:19:51;90484.72;;;3.03;100.00
42945;BME280;28584;42.636;23.294;2023-03-03T07:22:24;90597.28;;;3.08;100.00
42945;BME280;28584;42.636;23.294;2023-03-03T07:24:52;90650.44;;;3.08;100.00
42945;BME280;28584;42.636;23.294;2023-03-03T07:29:46;90703.00;;;3.03;100.00
42945;BME280;28584;42.636;23.294;2023-03-03T07:34:54;89711.31;;;3.12;100.00
42945;BME280;28584;42.636;23.294;2023-03-03T07:37:32;89249.38;;;3.13;100.00
42945;BME280;28584;42.636;23.294;2023-03-03T07:39:59;89120.81;;;3.14;100.00
42945;BME280;28584;42.636;23.294;2023-03-03T07:42:27;89815.06;;;3.02;100.00
42945;BME280;28584;42.636;23.294;2023-03-03T07:44:58;90074.06;;;3.10;100.00
42945;BME280;28584;42.636;23.294;2023-03-03T07:47:37;90227.34;;;3.22;100.00
42945;BME280;28584;42.636;23.294;2023-03-03T07:50:18;90477.28;;;3.36;100.00
42945;BME280;28584;42.636;23.294;2023-03-03T07:52:59;90844.84;;;3.42;100.00
42945;BME280;28584;42.636;23.294;2023-03-03T07:55:36;90875.81;;;3.56;100.00
42945;BME280;28584;42.636;23.294;2023-03-03T08:03:09;93132.09;;;3.60;100.00
42945;BME280;28584;42.636;23.294;2023-03-03T08:05:41;93686.63;;;3.69;100.00
42945;BME280;28584;42.636;23.294;2023-03-03T08:08:34;94616.34;;;3.73;100.00
42945;BME280;28584;42.636;23.294;2023-03-03T08:11:06;95256.22;;;3.78;100.00
42945;BME280;28584;42.636;23.294;2023-03-03T08:18:39;99634.97;;;4.09;100.00
42945;BME280;28584;42.636;23.294;2023-03-03T08:21:12;102429.34;;;4.14;100.00
42945;BME280;28584;42.636;23.294;2023-03-03T08:23:38;106315.31;;;4.23;100.00
42945;BME280;28584;42.636;23.294;2023-03-03T08:26:04;109877.31;;;4.41;100.00
42945;BME280;28584;42.636;23.294;2023-03-03T08:28:30;116195.19;;;4.41;100.00
42945;BME280;28584;42.636;23.294;2023-03-03T08:30:55;119960.53;;;4.51;100.00
42945;BME280;28584;42.636;23.294;2023-03-03T08:33:21;126145.00;;;4.45;100.00
42945;BME280;28584;42.636;23.294;2023-03-03T08:35:47;130584.25;;;4.48;100.00
42945;BME280;28584;42.636;23.294;2023-03-03T08:38:15;137356.31;;;4.36;100.00
42945;BME280;28584;42.636;23.294;2023-03-03T08:40:41;136939.69;;;4.55;100.00
42945;BME280;28584;42.636;23.294;2023-03-03T08:43:07;138446.50;;;4.59;100.00
42945;BME280;28584;42.636;23.294;2023-03-03T08:45:34;138366.84;;;4.78;100.00
42945;BME280;28584;42.636;23.294;2023-03-03T08:47:59;143462.94;;;4.90;100.00
42945;BME280;28584;42.636;23.294;2023-03-03T08:50:27;149372.75;;;5.04;100.00
42945;BME280;28584;42.636;23.294;2023-03-03T08:52:52;153338.47;;;5.20;100.00
42945;BME280;28584;42.636;23.294;2023-03-03T08:55:18;158924.88;;;5.25;100.00
42945;BME280;28584;42.636;23.294;2023-03-03T08:57:43;159973.41;;;5.33;100.00
42945;BME280;28584;42.636;23.294;2023-03-03T09:00:13;159941.50;;;5.21;100.00
42945;BME280;28584;42.636;23.294;2023-03-03T09:02:39;160006.66;;;5.45;100.00
42945;BME280;28584;42.636;23.294;2023-03-03T09:05:05;160014.66;;;5.48;100.00
42945;BME280;28584;42.636;23.294;2023-03-03T09:07:30;160046.63;;;5.60;100.00
42945;BME280;28584;42.636;23.294;2023-03-03T09:09:56;160113.19;;;5.86;100.00
42945;BME280;28584;42.636;23.294;2023-03-03T09:12:28;159924.19;;;5.14;100.00
42945;BME280;28584;42.636;23.294;2023-03-03T09:15:02;159977.41;;;5.34;100.00
42945;BME280;28584;42.636;23.294;2023-03-03T09:17:33;160037.28;;;5.57;100.00
42945;BME280;28584;42.636;23.294;2023-03-03T09:20:16;160065.25;;;5.67;100.00
42945;BME280;28584;42.636;23.294;2023-03-03T09:22:46;160145.13;;;5.98;100.00
42945;BME280;28584;42.636;23.294;2023-03-03T09:27:46;160014.66;;;5.48;100.00
42945;BME280;28584;42.636;23.294;2023-03-03T09:30:35;160012.00;;;5.47;100.00
42945;BME280;28584;42.636;23.294;2023-03-03T09:33:20;160131.81;;;5.93;100.00
42945;BME280;28584;42.636;23.294;2023-03-03T09:35:49;160195.72;;;6.17;100.00
42945;BME280;28584;42.636;23.294;2023-03-03T09:38:30;160227.66;;;6.29;100.00
42945;BME280;28584;42.636;23.294;2023-03-03T09:57:13;158918.53;;;4.21;100.00
42945;BME280;28584;42.636;23.294;2023-03-03T09:59:54;153699.84;;;4.11;100.00
42945;BME280;28584;42.636;23.294;2023-03-03T10:10:28;135717.69;;;4.50;100.00
42945;BME280;28584;42.636;23.294;2023-03-03T10:21:11;124901.38;;;4.61;100.00
42945;BME280;28584;42.636;23.294;2023-03-03T10:23:52;126994.81;;;4.72;100.00
42945;BME280;28584;42.636;23.294;2023-03-03T10:29:47;123931.97;;;4.61;100.00
42945;BME280;28584;42.636;23.294;2023-03-03T10:32:44;125007.41;;;4.16;100.00
42945;BME280;28584;42.636;23.294;2023-03-03T10:35:29;120732.19;;;3.75;100.00
42945;BME280;28584;42.636;23.294;2023-03-03T10:38:39;111878.41;;;4.15;100.00
42945;BME280;28584;42.636;23.294;2023-03-03T10:51:32;95612.00;;;4.02;100.00
42945;BME280;28584;42.636;23.294;2023-03-03T10:57:03;97459.53;;;3.92;100.00
42945;BME280;28584;42.636;23.294;2023-03-03T11:02:20;98654.91;;;4.17;100.00
42945;BME280;28584;42.636;23.294;2023-03-03T11:05:24;99158.19;;;4.12;100.00
42945;BME280;28584;42.636;23.294;2023-03-03T11:07:57;99291.53;;;3.86;100.00
42945;BME280;28584;42.636;23.294;2023-03-03T11:10:46;97545.13;;;3.83;100.00
42945;BME280;28584;42.636;23.294;2023-03-03T11:13:45;96478.34;;;3.62;100.00
42945;BME280;28584;42.636;23.294;2023-03-03T11:18:52;92851.72;;;3.35;100.00
42945;BME280;28584;42.636;23.294;2023-03-03T11:21:25;90304.56;;;3.40;100.00
42945;BME280;28584;42.636;23.294;2023-03-03T11:24:10;88607.75;;;3.57;100.00
42945;BME280;28584;42.636;23.294;2023-03-03T11:31:56;84942.03;;;3.73;100.00
42945;BME280;28584;42.636;23.294;2023-03-03T11:37:13;84163.41;;;3.63;100.00
42945;BME280;28584;42.636;23.294;2023-03-03T11:39:41;84104.56;;;3.56;100.00
42945;BME280;28584;42.636;23.294;2023-03-03T11:49:47;82132.84;;;4.10;100.00
42945;BME280;28584;42.636;23.294;2023-03-03T11:55:20;82373.91;;;4.19;100.00
42945;BME280;28584;42.636;23.294;2023-03-03T11:58:18;83294.78;;;4.03;100.00
42945;BME280;28584;42.636;23.294;2023-03-03T12:00:51;83631.94;;;3.96;100.00
42945;BME280;28584;42.636;23.294;2023-03-03T12:03:31;83300.63;;;3.92;100.00
42945;BME280;28584;42.636;23.294;2023-03-03T12:16:57;81667.00;;;4.18;100.00
42945;BME280;28584;42.636;23.294;2023-03-03T12:19:26;81471.78;;;4.19;100.00
42945;BME280;28584;42.636;23.294;2023-03-03T12:35:49;82699.19;;;3.67;100.00
42945;BME280;28584;42.636;23.294;2023-03-03T12:38:37;81626.16;;;3.82;100.00
42945;BME280;28584;42.636;23.294;2023-03-03T12:43:54;80604.03;;;3.96;100.00
42945;BME280;28584;42.636;23.294;2023-03-03T12:46:56;80343.09;;;3.94;100.00
42945;BME280;28584;42.636;23.294;2023-03-03T12:49:38;79947.19;;;4.06;100.00
42945;BME280;28584;42.636;23.294;2023-03-03T12:55:34;79747.91;;;4.10;100.00
42945;BME280;28584;42.636;23.294;2023-03-03T13:06:32;80722.84;;;4.41;100.00
42945;BME280;28584;42.636;23.294;2023-03-03T13:17:16;79530.13;;;3.90;100.00
42945;BME280;28584;42.636;23.294;2023-03-03T13:25:49;78952.69;;;3.86;100.00
42945;BME280;28584;42.636;23.294;2023-03-03T13:28:20;78946.69;;;3.86;100.00
42945;BME280;28584;42.636;23.294;2023-03-03T13:30:49;79015.28;;;3.99;100.00
42945;BME280;28584;42.636;23.294;2023-03-03T13:33:42;78817.53;;;4.00;100.00
42945;BME280;28584;42.636;23.294;2023-03-03T13:36:15;79067.31;;;4.08;100.00
42945;BME280;28584;42.636;23.294;2023-03-03T13:38:46;79354.47;;;3.93;100.00
42945;BME280;28584;42.636;23.294;2023-03-03T13:41:41;79349.81;;;4.08;100.00
42945;BME280;28584;42.636;23.294;2023-03-03T13:44:30;79168.16;;;4.09;100.00
42945;BME280;28584;42.636;23.294;2023-03-03T13:52:09;80479.34;;;3.49;100.00
42945;BME280;28584;42.636;23.294;2023-03-03T13:57:52;81337.84;;;3.47;100.00
42945;BME280;28584;42.636;23.294;2023-03-03T14:06:02;84014.75;;;3.86;100.00
42945;BME280;28584;42.636;23.294;2023-03-03T14:14:01;85100.97;;;4.00;100.00
42945;BME280;28584;42.636;23.294;2023-03-03T14:21:39;85916.50;;;4.05;100.00
42945;BME280;28584;42.636;23.294;2023-03-03T14:24:18;85707.47;;;4.14;100.00
42945;BME280;28584;42.636;23.294;2023-03-03T14:26:49;85556.28;;;4.21;100.00
42945;BME280;28584;42.636;23.294;2023-03-03T14:29:21;85119.34;;;4.17;100.00
42945;BME280;28584;42.636;23.294;2023-03-03T14:31:47;84897.06;;;4.18;100.00
42945;BME280;28584;42.636;23.294;2023-03-03T14:36:48;83716.69;;;3.93;100.00
42945;BME280;28584;42.636;23.294;2023-03-03T14:39:38;83899.38;;;4.00;100.00
42945;BME280;28584;42.636;23.294;2023-03-03T14:42:29;84262.19;;;4.13;100.00
42945;BME280;28584;42.636;23.294;2023-03-03T14:44:56;84093.91;;;4.16;100.00
42945;BME280;28584;42.636;23.294;2023-03-03T14:47:24;84231.69;;;4.26;100.00
42945;BME280;28584;42.636;23.294;2023-03-03T14:49:51;84127.06;;;4.40;100.00
42945;BME280;28584;42.636;23.294;2023-03-03T14:52:32;83823.53;;;4.31;100.00
42945;BME280;28584;42.636;23.294;2023-03-03T14:55:00;83561.72;;;4.41;100.00
42945;BME280;28584;42.636;23.294;2023-03-03T15:05:22;84760.47;;;4.23;100.00
42945;BME280;28584;42.636;23.294;2023-03-03T15:07:54;84150.56;;;4.18;100.00
42945;BME280;28584;42.636;23.294;2023-03-03T15:10:38;84692.66;;;4.28;100.00
42945;BME280;28584;42.636;23.294;2023-03-03T15:16:19;83769.66;;;4.31;100.00
42945;BME280;28584;42.636;23.294;2023-03-03T15:22:19;82876.50;;;4.38;100.00
42945;BME280;28584;42.636;23.294;2023-03-03T15:35:51;82091.81;;;4.46;100.00
42945;BME280;28584;42.636;23.294;2023-03-03T15:39:11;81998.84;;;4.59;100.00
42945;BME280;28584;42.636;23.294;2023-03-03T16:01:06;82385.94;;;4.04;100.00
42945;BME280;28584;42.636;23.294;2023-03-03T16:03:42;82521.94;;;4.09;100.00
42945;BME280;28584;42.636;23.294;2023-03-03T16:08:57;83102.50;;;4.18;100.00
42945;BME280;28584;42.636;23.294;2023-03-03T16:33:00;92729.50;;;4.11;100.00
42945;BME280;28584;42.636;23.294;2023-03-03T16:35:37;93550.31;;;4.12;100.00
42945;BME280;28584;42.636;23.294;2023-03-03T16:38:20;94625.41;;;4.14;100.00
42945;BME280;28584;42.636;23.294;2023-03-03T16:40:56;95143.19;;;4.15;100.00
42945;BME280;28584;42.636;23.294;2023-03-03T16:43:58;95405.22;;;4.08;100.00
42945;BME280;28584;42.636;23.294;2023-03-03T16:46:45;96064.94;;;4.11;100.00
42945;BME280;28584;42.636;23.294;2023-03-03T16:52:32;96565.94;;;3.95;100.00
42945;BME280;28584;42.636;23.294;2023-03-03T16:55:47;97137.91;;;3.87;100.00
42945;BME280;28584;42.636;23.294;2023-03-03T16:58:34;98731.06;;;3.79;100.00
42945;BME280;28584;42.636;23.294;2023-03-03T17:09:31;104093.13;;;3.61;100.00
42945;BME280;28584;42.636;23.294;2023-03-03T17:12:42;105784.03;;;3.75;100.00
42945;BME280;28584;42.636;23.294;2023-03-03T17:20:16;108929.47;;;3.77;100.00
42945;BME280;28584;42.636;23.294;2023-03-03T17:23:09;110311.09;;;3.75;100.00
42945;BME280;28584;42.636;23.294;2023-03-03T17:31:31;111526.13;;;4.11;100.00
42945;BME280;28584;42.636;23.294;2023-03-03T17:34:36;111512.66;;;4.16;100.00
42945;BME280;28584;42.636;23.294;2023-03-03T17:40:10;110869.91;;;4.12;100.00
42945;BME280;28584;42.636;23.294;2023-03-03T17:45:34;110283.34;;;4.00;100.00
42945;BME280;28584;42.636;23.294;2023-03-03T18:00:08;110271.34;;;3.80;100.00